createdAt,value
2023-04-17T00:02:30.093Z,4.50
2023-04-17T00:05:36.253Z,5.63
2023-04-17T00:08:43.733Z,5.37
2023-04-17T00:11:50.082Z,6.03
2023-04-17T00:14:57.544Z,4.57
2023-04-17T00:18:03.568Z,3.80
2023-04-17T00:21:09.652Z,3.60
2023-04-17T00:24:15.691Z,3.53
2023-04-17T00:27:21.610Z,3.30
2023-04-17T00:30:28.869Z,3.27
2023-04-17T00:33:35.038Z,3.83
2023-04-17T00:36:41.091Z,5.43
2023-04-17T00:39:47.220Z,5.33
2023-04-17T00:42:56.323Z,6.63
2023-04-17T00:46:04.855Z,5.00
2023-04-17T00:49:12.337Z,3.70
2023-04-17T00:52:28.805Z,3.50
2023-04-17T00:55:36.699Z,3.80
2023-04-17T00:58:43.256Z,3.87
2023-04-17T01:01:50.720Z,4.03
2023-04-17T01:04:57.088Z,5.63
2023-04-17T01:08:03.032Z,15.90
2023-04-17T01:11:09.364Z,14.13
2023-04-17T01:14:16.407Z,9.67
2023-04-17T01:17:26.402Z,6.67
2023-04-17T01:20:34.281Z,4.57
2023-04-17T01:23:46.502Z,4.00
2023-04-17T01:26:54.275Z,4.00
2023-04-17T01:30:00.584Z,4.37
2023-04-17T01:33:08.390Z,4.77
2023-04-17T01:36:14.811Z,4.33
2023-04-17T01:39:20.642Z,4.77
2023-04-17T01:42:28.362Z,4.40
2023-04-17T01:45:34.356Z,5.33
2023-04-17T01:48:40.818Z,4.67
2023-04-17T01:51:46.786Z,6.10
2023-04-17T01:54:52.736Z,4.97
2023-04-17T01:58:00.355Z,5.90
2023-04-17T02:01:06.814Z,5.60
2023-04-17T02:04:13.385Z,5.07
2023-04-17T02:07:19.992Z,5.73
2023-04-17T02:10:26.262Z,4.40
2023-04-17T02:13:33.896Z,4.43
2023-04-17T02:16:45.775Z,4.07
2023-04-17T02:19:51.717Z,5.07
2023-04-17T02:22:57.478Z,5.23
2023-04-17T02:26:03.736Z,6.40
2023-04-17T02:29:11.440Z,6.97
2023-04-17T02:32:18.530Z,6.23
2023-04-17T02:35:26.202Z,8.10
2023-04-17T02:38:32.490Z,6.40
2023-04-17T02:41:38.765Z,6.10
2023-04-17T02:44:47.074Z,7.97
2023-04-17T02:47:53.293Z,7.20
2023-04-17T02:50:59.323Z,5.10
2023-04-17T02:54:05.905Z,4.83
2023-04-17T02:57:12.482Z,4.47
2023-04-17T03:00:20.923Z,4.83
2023-04-17T03:03:31.261Z,4.63
2023-04-17T03:06:37.478Z,4.40
2023-04-17T03:09:45.880Z,5.47
2023-04-17T03:12:52.044Z,4.80
2023-04-17T03:16:00.471Z,13.67
2023-04-17T03:19:06.909Z,5.93
2023-04-17T03:22:13.479Z,4.37
2023-04-17T03:25:19.835Z,3.97
2023-04-17T03:28:26.580Z,4.57
2023-04-17T03:31:34.059Z,4.70
2023-04-17T03:34:40.415Z,5.97
2023-04-17T03:37:46.858Z,6.47
2023-04-17T03:40:53.104Z,7.17
2023-04-17T03:44:02.293Z,5.47
2023-04-17T03:47:11.536Z,9.30
2023-04-17T03:50:18.077Z,14.00
2023-04-17T03:53:24.274Z,10.57
2023-04-17T03:56:30.257Z,9.50
2023-04-17T03:59:36.390Z,10.27
2023-04-17T04:02:44.016Z,11.00
2023-04-17T04:05:50.151Z,9.67
2023-04-17T04:08:56.149Z,5.70
2023-04-17T04:12:02.539Z,7.97
2023-04-17T04:15:10.241Z,10.17
2023-04-17T04:18:18.352Z,11.20
2023-04-17T04:21:24.945Z,10.60
2023-04-17T04:24:31.838Z,12.73
2023-04-17T04:27:39.714Z,9.13
2023-04-17T04:30:51.132Z,9.67
2023-04-17T04:33:59.717Z,7.10
2023-04-17T04:37:05.819Z,5.80
2023-04-17T04:40:12.532Z,6.10
2023-04-17T04:43:20.812Z,5.43
2023-04-17T04:46:28.523Z,4.10
2023-04-17T04:49:36.349Z,4.97
2023-04-17T04:52:42.337Z,6.30
2023-04-17T04:55:48.797Z,5.10
2023-04-17T04:58:55.336Z,5.30
2023-04-17T05:02:01.610Z,5.03
2023-04-17T05:05:11.127Z,6.23
2023-04-17T05:08:17.307Z,7.83
2023-04-17T05:11:23.494Z,7.57
2023-04-17T05:14:30.649Z,7.27
2023-04-17T05:17:37.650Z,10.50
2023-04-17T05:20:45.696Z,10.00
2023-04-17T05:23:52.368Z,10.87
2023-04-17T05:26:58.604Z,10.53
2023-04-17T05:30:05.781Z,15.80
2023-04-17T05:33:11.989Z,12.50
2023-04-17T05:36:19.868Z,10.33
2023-04-17T05:39:26.377Z,11.97
2023-04-17T05:42:32.394Z,11.10
2023-04-17T05:45:39.308Z,9.47
2023-04-17T05:48:45.757Z,8.40
2023-04-17T05:51:53.329Z,9.57
2023-04-17T05:54:59.355Z,7.37
2023-04-17T05:58:20.518Z,9.13
2023-04-17T06:01:30.092Z,11.50
2023-04-17T06:04:36.741Z,10.73
2023-04-17T06:07:44.471Z,12.40
2023-04-17T06:10:52.409Z,16.50
2023-04-17T06:13:58.608Z,15.37
2023-04-17T06:17:04.795Z,24.73
2023-04-17T06:20:11.315Z,34.57
2023-04-17T06:23:19.280Z,38.27
2023-04-17T06:26:25.688Z,38.97
2023-04-17T06:29:32.124Z,38.10
2023-04-17T06:32:42.938Z,24.30
2023-04-17T06:35:49.416Z,20.57
2023-04-17T06:38:56.953Z,23.40
2023-04-17T06:42:03.155Z,25.13
2023-04-17T06:45:10.309Z,21.67
2023-04-17T06:48:16.694Z,18.00
2023-04-17T06:51:25.052Z,9.03
2023-04-17T06:54:32.834Z,8.67
2023-04-17T06:57:39.470Z,8.23
2023-04-17T07:00:45.794Z,8.00
2023-04-17T07:03:52.433Z,9.07
2023-04-17T07:06:59.010Z,8.53
2023-04-17T07:10:07.632Z,8.03
2023-04-17T07:13:14.075Z,6.87
2023-04-17T07:16:22.960Z,4.90
2023-04-17T07:19:29.210Z,6.20
2023-04-17T07:22:35.616Z,6.27
2023-04-17T07:25:44.084Z,5.93
2023-04-17T07:28:50.947Z,6.20
2023-04-17T07:31:57.449Z,6.20
2023-04-17T07:35:04.642Z,5.97
2023-04-17T07:38:11.340Z,7.73
2023-04-17T07:41:19.043Z,6.80
2023-04-17T07:44:25.576Z,4.47
2023-04-17T07:47:32.219Z,5.13
2023-04-17T07:50:38.471Z,5.53
2023-04-17T07:53:45.074Z,6.37
2023-04-17T07:56:52.687Z,5.20
2023-04-17T07:59:59.160Z,8.93
2023-04-17T08:03:05.841Z,5.73
2023-04-17T08:06:12.008Z,5.07
2023-04-17T08:09:18.259Z,3.67
2023-04-17T08:12:26.142Z,4.63
2023-04-17T08:15:32.860Z,4.27
2023-04-17T08:18:39.470Z,4.30
2023-04-17T08:21:46.032Z,7.30
2023-04-17T08:24:54.869Z,3.90
2023-04-17T08:28:02.432Z,3.30
2023-04-17T08:31:10.510Z,3.53
2023-04-17T08:34:16.905Z,2.50
2023-04-17T08:37:23.021Z,2.40
2023-04-17T08:40:29.404Z,3.07
2023-04-17T08:43:37.574Z,5.87
2023-04-17T08:46:44.184Z,10.37
2023-04-17T08:49:50.776Z,7.40
2023-04-17T08:52:56.917Z,7.70
2023-04-17T08:56:08.299Z,7.77
2023-04-17T08:59:17.298Z,2.87
2023-04-17T09:02:26.059Z,2.43
2023-04-17T09:05:34.464Z,2.13
2023-04-17T09:08:54.974Z,2.10
2023-04-17T09:12:11.490Z,3.10
2023-04-17T09:15:19.747Z,2.97
2023-04-17T09:18:26.984Z,2.70
2023-04-17T09:21:33.450Z,2.70
2023-04-17T09:24:39.690Z,3.00
2023-04-17T09:27:46.184Z,3.87
2023-04-17T09:30:53.452Z,15.70
2023-04-17T09:34:01.120Z,30.50
2023-04-17T09:37:07.455Z,16.77
2023-04-17T09:40:13.692Z,5.73
2023-04-17T09:43:21.588Z,8.57
2023-04-17T09:46:40.807Z,6.00
2023-04-17T09:49:52.497Z,6.30
2023-04-17T09:52:58.887Z,8.03
2023-04-17T09:56:06.791Z,6.00
2023-04-17T09:59:13.251Z,6.63
2023-04-17T10:02:21.875Z,3.00
2023-04-17T10:05:30.289Z,4.83
2023-04-17T10:08:36.478Z,4.03
2023-04-17T10:11:46.239Z,5.30
2023-04-17T10:14:53.449Z,5.20
2023-04-17T10:18:23.247Z,4.83
2023-04-17T10:21:30.120Z,2.93
2023-04-17T10:24:36.663Z,6.60
2023-04-17T10:27:47.416Z,4.03
2023-04-17T10:30:55.568Z,3.90
2023-04-17T10:34:03.655Z,4.43
2023-04-17T10:37:15.218Z,4.07
2023-04-17T10:40:24.148Z,3.57
2023-04-17T10:43:30.575Z,19.77
2023-04-17T10:46:52.322Z,5.43
2023-04-17T10:50:00.606Z,4.53
2023-04-17T10:53:06.974Z,2.97
2023-04-17T10:56:18.534Z,3.87
2023-04-17T10:59:30.277Z,3.63
2023-04-17T11:02:37.490Z,2.73
2023-04-17T11:05:47.941Z,2.60
2023-04-17T11:08:57.408Z,2.90
2023-04-17T11:12:03.684Z,3.67
2023-04-17T11:15:10.535Z,3.40
2023-04-17T11:18:16.653Z,4.23
2023-04-17T11:21:24.461Z,3.77
2023-04-17T11:24:31.540Z,5.23
2023-04-17T11:27:37.727Z,5.93
2023-04-17T11:30:45.621Z,3.97
2023-04-17T11:33:51.933Z,4.23
2023-04-17T11:37:00.769Z,3.87
2023-04-17T11:40:10.310Z,5.17
2023-04-17T11:43:17.628Z,4.53
2023-04-17T11:46:24.844Z,4.50
2023-04-17T11:49:32.607Z,4.03
2023-04-17T11:52:40.860Z,3.80
2023-04-17T11:55:47.840Z,4.00
2023-04-17T11:58:55.755Z,3.90
2023-04-17T12:02:02.648Z,7.17
2023-04-17T12:05:15.571Z,4.87
2023-04-17T12:08:24.118Z,2.90
2023-04-17T12:11:32.792Z,4.80
2023-04-17T12:14:38.867Z,3.90
2023-04-17T12:17:44.924Z,4.53
2023-04-17T12:20:51.443Z,2.90
2023-04-17T12:23:59.115Z,2.80
2023-04-17T12:27:05.318Z,4.67
2023-04-17T12:30:13.180Z,3.53
2023-04-17T12:33:19.369Z,4.67
2023-04-17T12:36:26.014Z,4.43
2023-04-17T12:39:33.933Z,7.30
2023-04-17T12:42:48.756Z,4.10
2023-04-17T12:45:55.881Z,3.90
2023-04-17T12:49:02.079Z,4.83
2023-04-17T12:52:08.239Z,4.90
2023-04-17T12:55:15.805Z,4.40
2023-04-17T12:58:21.847Z,4.40
2023-04-17T13:01:28.146Z,4.53
2023-04-17T13:04:34.972Z,5.00
2023-04-17T13:07:41.210Z,3.70
2023-04-17T13:10:48.682Z,4.33
2023-04-17T13:13:55.132Z,2.93
2023-04-17T13:17:01.642Z,6.17
2023-04-17T13:20:08.969Z,3.93
2023-04-17T13:23:15.290Z,10.77
2023-04-17T13:26:23.338Z,11.07
2023-04-17T13:29:29.576Z,12.87
2023-04-17T13:32:36.327Z,5.40
2023-04-17T13:35:42.931Z,3.60
2023-04-17T13:38:49.349Z,6.97
2023-04-17T13:41:58.438Z,5.10
2023-04-17T13:45:05.187Z,4.97
2023-04-17T13:48:12.169Z,6.03
2023-04-17T13:51:18.688Z,2.80
2023-04-17T13:54:24.916Z,2.83
2023-04-17T13:57:32.919Z,4.30
2023-04-17T14:00:39.128Z,4.73
2023-04-17T14:03:46.266Z,5.80
2023-04-17T14:06:52.959Z,3.40
2023-04-17T14:09:59.111Z,2.40
2023-04-17T14:13:07.231Z,7.20
2023-04-17T14:16:13.731Z,5.57
2023-04-17T14:19:20.122Z,5.47
2023-04-17T14:22:26.672Z,5.03
2023-04-17T14:25:33.118Z,4.50
2023-04-17T14:28:40.760Z,2.10
2023-04-17T14:31:47.338Z,3.10
2023-04-17T14:34:54.612Z,5.60
2023-04-17T14:38:01.013Z,5.53
2023-04-17T14:41:07.416Z,4.00
2023-04-17T14:44:15.745Z,4.23
2023-04-17T14:47:22.433Z,4.20
2023-04-17T14:50:28.591Z,5.20
2023-04-17T14:53:35.026Z,3.97
2023-04-17T14:56:41.425Z,4.33
2023-04-17T14:59:49.493Z,2.73
2023-04-17T15:02:55.848Z,3.37
2023-04-17T15:06:03.327Z,4.33
2023-04-17T15:09:10.359Z,5.20
2023-04-17T15:12:16.780Z,6.50
2023-04-17T15:15:24.449Z,5.00
2023-04-17T15:18:31.041Z,4.30
2023-04-17T15:21:37.454Z,5.50
2023-04-17T15:24:43.794Z,4.07
2023-04-17T15:27:49.895Z,5.83
2023-04-17T15:30:57.943Z,10.20
2023-04-17T15:34:04.410Z,8.00
2023-04-17T15:37:11.962Z,8.63
2023-04-17T15:40:18.022Z,10.27
2023-04-17T15:43:24.753Z,7.67
2023-04-17T15:46:32.729Z,9.07
2023-04-17T15:49:38.888Z,4.70
2023-04-17T15:52:45.162Z,4.67
2023-04-17T15:55:53.375Z,4.70
2023-04-17T15:58:59.789Z,8.23
2023-04-17T16:02:08.055Z,13.17
2023-04-17T16:05:15.248Z,14.70
2023-04-17T16:08:21.659Z,11.33
2023-04-17T16:11:28.760Z,8.37
2023-04-17T16:14:35.223Z,8.93
2023-04-17T16:17:43.486Z,8.57
2023-04-17T16:20:49.790Z,6.77
2023-04-17T16:23:57.479Z,14.47
2023-04-17T16:27:04.366Z,10.87
2023-04-17T16:30:11.418Z,12.50
2023-04-17T16:33:18.878Z,7.17
2023-04-17T16:36:26.102Z,8.70
2023-04-17T16:39:32.709Z,10.97
2023-04-17T16:42:39.072Z,10.07
2023-04-17T16:45:45.373Z,9.67
2023-04-17T16:48:53.200Z,5.17
2023-04-17T16:51:59.794Z,6.70
2023-04-17T16:55:06.453Z,6.60
2023-04-17T16:58:12.596Z,6.50
2023-04-17T17:01:18.834Z,5.33
2023-04-17T17:04:26.265Z,8.13
2023-04-17T17:07:32.733Z,12.73
2023-04-17T17:10:39.093Z,10.20
2023-04-17T17:13:48.016Z,10.93
2023-04-17T17:16:54.597Z,10.67
2023-04-17T17:20:02.360Z,10.10
2023-04-17T17:23:08.436Z,10.40
2023-04-17T17:26:14.927Z,14.57
2023-04-17T17:29:21.381Z,9.10
2023-04-17T17:32:27.671Z,7.83
2023-04-17T17:35:35.228Z,17.13
2023-04-17T17:38:41.747Z,7.93
2023-04-17T17:41:48.141Z,6.17
2023-04-17T17:44:54.632Z,6.73
2023-04-17T17:48:00.915Z,7.83
2023-04-17T17:51:08.733Z,6.33
2023-04-17T17:54:15.114Z,5.70
2023-04-17T17:57:21.436Z,8.17
2023-04-17T18:00:27.762Z,7.93
2023-04-17T18:03:35.458Z,6.17
2023-04-17T18:06:43.135Z,9.47
2023-04-17T18:09:50.802Z,12.30
2023-04-17T18:12:57.421Z,13.33
2023-04-17T18:16:05.238Z,11.03
2023-04-17T18:19:11.298Z,12.10
2023-04-17T18:22:20.609Z,9.17
2023-04-17T18:25:26.490Z,14.87
2023-04-17T18:28:33.898Z,11.83
2023-04-17T18:31:39.896Z,9.80
2023-04-17T18:34:49.285Z,10.53
2023-04-17T18:37:57.584Z,10.40
2023-04-17T18:41:03.930Z,7.57
2023-04-17T18:44:09.694Z,6.83
2023-04-17T18:47:15.799Z,9.33
2023-04-17T18:50:21.996Z,11.80
2023-04-17T18:53:29.595Z,7.13
2023-04-17T18:56:35.596Z,6.40
2023-04-17T18:59:43.226Z,6.50
2023-04-17T19:02:49.648Z,11.93
2023-04-17T19:05:55.881Z,9.77
2023-04-17T19:09:03.599Z,8.10
2023-04-17T19:12:10.311Z,5.60
2023-04-17T19:15:17.762Z,6.67
2023-04-17T19:18:24.289Z,7.10
2023-04-17T19:21:31.819Z,9.87
2023-04-17T19:24:39.417Z,6.93
2023-04-17T19:27:46.141Z,10.63
2023-04-17T19:30:52.396Z,32.87
2023-04-17T19:33:58.753Z,19.50
2023-04-17T19:37:05.045Z,9.30
2023-04-17T19:40:24.237Z,9.50
2023-04-17T19:43:31.727Z,12.87
2023-04-17T19:46:37.900Z,12.43
2023-04-17T19:49:44.102Z,15.93
2023-04-17T19:52:51.625Z,17.67
2023-04-17T19:55:59.201Z,17.07
2023-04-17T19:59:06.175Z,13.53
2023-04-17T20:02:12.649Z,17.03
2023-04-17T20:05:19.569Z,11.77
2023-04-17T20:08:26.344Z,11.50
2023-04-17T20:11:34.175Z,9.77
2023-04-17T20:14:40.520Z,10.27
2023-04-17T20:17:46.800Z,6.30
2023-04-17T20:20:53.037Z,6.17
2023-04-17T20:23:59.629Z,5.27
2023-04-17T20:27:07.356Z,7.43
2023-04-17T20:30:14.617Z,7.43
2023-04-17T20:33:20.672Z,6.30
2023-04-17T20:36:27.463Z,5.83
2023-04-17T20:39:33.374Z,7.77
2023-04-17T20:42:41.146Z,6.80
2023-04-17T20:45:48.459Z,6.30
2023-04-17T20:48:54.567Z,3.67
2023-04-17T20:52:02.190Z,4.83
2023-04-17T20:55:09.381Z,4.47
2023-04-17T20:58:16.822Z,4.77
2023-04-17T21:01:23.176Z,5.07
2023-04-17T21:04:29.330Z,2.90
2023-04-17T21:07:35.493Z,3.43
2023-04-17T21:10:41.450Z,7.03
2023-04-17T21:13:49.351Z,6.67
2023-04-17T21:16:58.458Z,6.43
2023-04-17T21:20:05.663Z,6.33
2023-04-17T21:23:11.880Z,6.77
2023-04-17T21:26:18.824Z,9.17
2023-04-17T21:29:26.275Z,4.50
2023-04-17T21:32:32.240Z,3.57
2023-04-17T21:35:38.322Z,3.47
2023-04-17T21:38:44.363Z,2.63
2023-04-17T21:41:50.442Z,2.00
2023-04-17T21:44:58.032Z,2.10
2023-04-17T21:48:04.521Z,4.00
2023-04-17T21:51:10.941Z,5.37
2023-04-17T21:54:17.283Z,4.93
2023-04-17T21:57:23.488Z,4.97
2023-04-17T22:00:31.125Z,3.60
2023-04-17T22:03:38.353Z,3.70
2023-04-17T22:06:44.544Z,2.40
2023-04-17T22:09:50.542Z,2.83
2023-04-17T22:12:56.726Z,2.53
2023-04-17T22:16:04.323Z,3.17
2023-04-17T22:19:10.460Z,5.90
2023-04-17T22:22:16.607Z,3.40
2023-04-17T22:25:22.829Z,3.07
2023-04-17T22:28:31.050Z,2.50
2023-04-17T22:31:38.623Z,2.00
2023-04-17T22:34:51.145Z,1.97
2023-04-17T22:37:57.384Z,1.70
2023-04-17T22:41:04.068Z,2.10
2023-04-17T22:44:10.376Z,3.37
2023-04-17T22:47:17.861Z,3.90
2023-04-17T22:50:23.929Z,3.10
2023-04-17T22:53:31.502Z,2.67
2023-04-17T22:56:37.662Z,2.57
2023-04-17T22:59:43.918Z,2.60
2023-04-17T23:02:51.472Z,2.50
2023-04-17T23:05:57.982Z,2.23
2023-04-17T23:09:05.028Z,1.83
2023-04-17T23:12:11.330Z,3.80
2023-04-17T23:15:17.388Z,4.80
2023-04-17T23:18:25.049Z,6.57
2023-04-17T23:21:31.463Z,3.97
2023-04-17T23:24:37.252Z,3.20
2023-04-17T23:27:43.485Z,3.10
2023-04-17T23:30:49.581Z,2.90
2023-04-17T23:33:57.354Z,2.57
2023-04-17T23:37:03.691Z,2.83
2023-04-17T23:40:10.996Z,2.20
2023-04-17T23:43:16.900Z,2.30
2023-04-17T23:46:23.446Z,2.30
2023-04-17T23:49:30.843Z,2.00
2023-04-17T23:52:36.786Z,2.00
2023-04-17T23:55:43.215Z,2.17
2023-04-17T23:58:49.663Z,2.60
